Time;durP1;ratioP1;P1;durP2;ratioP2;P2;SDS_P1;SDS_P2;PMS_P1;PMS_P2;Temp;Humidity;BMP_temperature;BMP_pressure;BME280_temperature;BME280_humidity;BME280_pressure;Samples;Min_cycle;Max_cycle;Signal;HPM_P1;HPM_P2
2022/05/28 00:01:30;;;;;;;2.15;1.63;;;14.90;50.00;;;;;;5026263;28;20046;-45
2022/05/28 00:03:59;;;;;;;4.28;1.60;;;14.90;50.10;;;;;;5042194;28;20206;-47
2022/05/28 00:06:30;;;;;;;2.22;1.13;;;14.80;50.10;;;;;;5032129;28;20041;-45
2022/05/28 00:09:00;;;;;;;3.58;1.40;;;14.80;50.10;;;;;;5030376;28;20056;-47
2022/05/28 00:11:39;;;;;;;3.28;1.50;;;14.70;50.20;;;;;;5029346;28;20123;-46
2022/05/28 00:14:09;;;;;;;3.65;1.63;;;14.80;50.60;;;;;;5041415;28;20037;-46
2022/05/28 00:16:39;;;;;;;2.63;1.50;;;14.70;50.20;;;;;;5009641;28;20038;-45
2022/05/28 00:19:08;;;;;;;5.93;1.98;;;14.70;50.40;;;;;;5011064;28;20065;-47
2022/05/28 00:21:35;;;;;;;4.47;2.08;;;14.70;50.10;;;;;;5032895;28;20421;-45
2022/05/28 00:24:05;;;;;;;4.78;2.35;;;14.70;50.20;;;;;;5041180;28;20073;-46
2022/05/28 00:26:38;;;;;;;2.92;1.65;;;14.70;50.70;;;;;;5009428;28;20046;-46
2022/05/28 00:29:06;;;;;;;5.10;1.83;;;14.70;50.50;;;;;;5022623;28;20440;-46
2022/05/28 00:31:34;;;;;;;4.93;2.03;;;14.60;50.40;;;;;;5036590;28;20056;-46
2022/05/28 00:34:02;;;;;;;5.18;1.77;;;14.60;50.40;;;;;;5046475;28;20400;-46
2022/05/28 00:36:28;;;;;;;5.82;2.38;;;14.60;50.50;;;;;;5048537;28;20064;-45
2022/05/28 00:38:57;;;;;;;4.70;1.55;;;14.60;50.70;;;;;;5027742;28;20046;-47
2022/05/28 00:41:34;;;;;;;5.07;1.75;;;14.60;50.70;;;;;;5035816;28;20087;-45
2022/05/28 00:44:04;;;;;;;6.40;2.40;;;14.60;50.90;;;;;;5042244;28;20045;-51
2022/05/28 00:46:33;;;;;;;3.72;1.85;;;14.60;51.00;;;;;;5041424;28;20108;-44
2022/05/28 00:49:13;;;;;;;5.07;1.73;;;14.60;50.80;;;;;;5027169;28;20065;-45
2022/05/28 00:51:51;;;;;;;5.97;2.20;;;14.50;51.00;;;;;;5033742;28;20045;-45
2022/05/28 00:54:43;;;;;;;7.32;1.98;;;14.50;51.10;;;;;;5049803;28;20049;-46
2022/05/28 00:57:12;;;;;;;5.65;2.15;;;14.50;51.50;;;;;;5035085;28;20034;-45
2022/05/28 00:59:39;;;;;;;5.70;2.03;;;14.50;51.10;;;;;;5025636;28;20041;-47
2022/05/28 01:02:15;;;;;;;6.78;2.72;;;14.50;51.10;;;;;;5037906;28;20071;-45
2022/05/28 01:05:06;;;;;;;4.47;1.65;;;14.50;51.80;;;;;;5014897;28;20534;-44
2022/05/28 01:08:14;;;;;;;4.45;2.28;;;14.50;52.10;;;;;;5023517;28;20493;-45
2022/05/28 01:10:45;;;;;;;5.85;1.75;;;14.50;51.90;;;;;;5022571;28;20056;-48
2022/05/28 01:13:38;;;;;;;;;;;14.50;51.40;;;;;;5028560;28;20076;-48
2022/05/28 01:16:12;;;;;;;4.55;1.85;;;14.50;51.10;;;;;;5022858;28;19921;-46
2022/05/28 01:18:49;;;;;;;5.18;1.73;;;14.50;51.20;;;;;;5038875;28;20071;-48
2022/05/28 01:21:51;;;;;;;5.40;2.20;;;14.40;51.20;;;;;;5042145;28;20044;-46
2022/05/28 01:25:00;;;;;;;6.45;2.83;;;14.40;51.70;;;;;;5049420;28;20044;-45
2022/05/28 01:27:38;;;;;;;6.80;1.80;;;14.40;52.10;;;;;;5036667;28;20567;-50
2022/05/28 01:30:09;;;;;;;8.18;2.10;;;14.40;52.00;;;;;;5041517;28;20037;-49
2022/05/28 01:32:39;;;;;;;2.50;2.00;;;14.40;51.70;;;;;;5050804;28;20049;-50
2022/05/28 01:35:11;;;;;;;6.22;2.22;;;14.40;51.70;;;;;;5028988;28;20115;-50
2022/05/28 01:37:38;;;;;;;4.10;1.88;;;14.40;52.10;;;;;;5038890;28;20505;-45
2022/05/28 01:40:14;;;;;;;6.22;2.78;;;14.40;52.00;;;;;;5041484;28;20044;-49
2022/05/28 01:42:46;;;;;;;3.90;2.33;;;14.40;52.00;;;;;;5051145;28;20070;-44
2022/05/28 01:45:16;;;;;;;7.25;2.13;;;14.40;52.30;;;;;;5030601;28;20099;-50
2022/05/28 01:47:44;;;;;;;7.75;2.35;;;14.50;52.30;;;;;;5044928;28;20049;-46
2022/05/28 01:50:16;;;;;;;9.82;2.25;;;14.50;52.20;;;;;;5049800;28;20525;-49
2022/05/28 01:52:44;;;;;;;5.32;2.25;;;14.50;52.20;;;;;;5039628;28;20104;-47
2022/05/28 01:55:14;;;;;;;3.80;2.08;;;14.50;52.20;;;;;;5027046;28;20069;-45
2022/05/28 01:57:43;;;;;;;5.15;2.08;;;14.50;52.30;;;;;;5043975;28;20726;-45
2022/05/28 02:00:10;;;;;;;5.82;2.30;;;14.50;52.10;;;;;;5049564;28;20496;-45
2022/05/28 02:02:37;;;;;;;5.30;2.17;;;14.50;52.10;;;;;;5053618;28;20077;-46
2022/05/28 02:05:05;;;;;;;6.22;2.13;;;14.50;52.20;;;;;;5030939;28;20501;-45
2022/05/28 02:07:32;;;;;;;7.65;2.90;;;14.50;52.20;;;;;;5032929;28;20071;-45
2022/05/28 02:10:08;;;;;;;8.45;2.25;;;14.40;52.30;;;;;;5040726;28;20036;-44
2022/05/28 02:13:16;;;;;;;6.55;2.10;;;14.40;52.60;;;;;;5026618;28;20038;-46
2022/05/28 02:15:51;;;;;;;6.20;2.47;;;14.40;53.00;;;;;;5021781;28;20037;-46
2022/05/28 02:18:24;;;;;;;5.07;1.63;;;14.40;52.70;;;;;;5044991;28;20684;-45
2022/05/28 02:21:24;;;;;;;6.38;2.22;;;14.40;52.70;;;;;;5053725;28;20400;-46
2022/05/28 02:24:12;;;;;;;4.93;2.00;;;14.40;53.10;;;;;;5036849;28;20917;-47
2022/05/28 02:26:51;;;;;;;6.03;1.83;;;14.30;52.90;;;;;;5033606;28;20042;-46
2022/05/28 02:29:20;;;;;;;3.92;1.80;;;14.30;53.50;;;;;;5032629;28;20076;-50
2022/05/28 02:31:49;;;;;;;4.15;2.25;;;14.30;52.80;;;;;;5030294;28;20061;-48
2022/05/28 02:34:18;;;;;;;8.40;2.45;;;14.20;52.90;;;;;;5044961;28;20451;-48
2022/05/28 02:36:45;;;;;;;6.43;2.45;;;14.20;53.00;;;;;;5046374;28;20083;-47
2022/05/28 02:39:14;;;;;;;6.18;2.70;;;14.20;53.00;;;;;;5050455;28;20136;-49
2022/05/28 02:41:47;;;;;;;8.63;2.15;;;14.20;53.10;;;;;;5039348;28;20117;-45
2022/05/28 02:44:14;;;;;;;8.07;2.70;;;14.10;53.30;;;;;;5041703;28;20056;-47
2022/05/28 02:46:41;;;;;;;7.68;2.72;;;14.10;53.30;;;;;;5047161;28;20044;-50
2022/05/28 02:49:08;;;;;;;6.35;2.80;;;14.00;53.30;;;;;;5034877;28;20055;-46
2022/05/28 02:51:39;;;;;;;5.35;2.15;;;14.00;53.40;;;;;;5033546;28;20045;-47
2022/05/28 02:54:06;;;;;;;9.63;2.38;;;14.00;53.50;;;;;;5036989;28;20073;-49
2022/05/28 02:56:34;;;;;;;5.00;2.60;;;14.00;53.60;;;;;;5052193;28;20094;-45
2022/05/28 02:59:00;;;;;;;6.72;2.60;;;13.90;53.60;;;;;;5052892;28;20103;-45
2022/05/28 03:01:33;;;;;;;4.53;2.20;;;13.90;53.80;;;;;;5033785;28;20053;-49
2022/05/28 03:04:02;;;;;;;3.47;1.98;;;13.90;54.00;;;;;;5040782;28;20033;-44
2022/05/28 03:06:40;;;;;;;8.15;2.70;;;13.80;54.00;;;;;;5051302;28;20135;-47
2022/05/28 03:09:08;;;;;;;5.65;2.25;;;13.80;54.10;;;;;;5031506;28;20045;-46
2022/05/28 03:11:40;;;;;;;6.05;2.55;;;13.80;54.10;;;;;;5029489;28;20037;-45
2022/05/28 03:14:07;;;;;;;6.25;2.85;;;13.70;54.30;;;;;;5031990;28;20084;-46
2022/05/28 03:16:34;;;;;;;12.35;3.35;;;13.70;54.30;;;;;;5032794;28;20072;-49
2022/05/28 03:19:01;;;;;;;4.10;2.50;;;13.70;54.40;;;;;;5028347;28;20041;-46
2022/05/28 03:21:28;;;;;;;10.05;2.63;;;13.70;54.60;;;;;;5041655;28;20080;-45
2022/05/28 03:24:02;;;;;;;6.63;2.90;;;13.60;54.70;;;;;;5041790;22;20042;-47
2022/05/28 03:26:30;;;;;;;7.43;2.72;;;13.60;54.70;;;;;;5011511;28;20045;-49
2022/05/28 03:29:00;;;;;;;9.40;2.75;;;13.60;54.80;;;;;;5004595;28;20038;-46
2022/05/28 03:31:28;;;;;;;9.13;2.60;;;13.60;55.00;;;;;;5019379;28;20112;-47
2022/05/28 03:33:57;;;;;;;5.72;2.28;;;13.60;55.10;;;;;;5015064;28;20345;-49
2022/05/28 03:36:25;;;;;;;7.22;2.60;;;13.60;55.20;;;;;;5020744;28;20042;-47
2022/05/28 03:38:57;;;;;;;7.13;2.45;;;13.60;55.40;;;;;;5021520;28;20040;-47
2022/05/28 03:41:35;;;;;;;5.55;2.72;;;13.60;55.30;;;;;;5032120;28;20049;-51
2022/05/28 03:44:02;;;;;;;6.20;2.40;;;13.60;55.40;;;;;;5012915;28;20042;-49
2022/05/28 03:46:32;;;;;;;12.43;3.03;;;13.60;55.50;;;;;;5014887;28;20042;-49
2022/05/28 03:49:14;;;;;;;8.98;2.97;;;13.60;55.80;;;;;;5009649;28;20100;-51
2022/05/28 03:51:43;;;;;;;11.77;2.75;;;13.60;56.00;;;;;;5014718;28;20091;-48
2022/05/28 03:54:12;;;;;;;6.57;2.63;;;13.60;55.80;;;;;;5010236;28;20494;-48
2022/05/28 03:56:40;;;;;;;6.57;2.92;;;13.60;55.90;;;;;;5016341;28;20064;-47
2022/05/28 03:59:10;;;;;;;9.68;2.53;;;13.50;56.00;;;;;;5015211;28;20092;-50
2022/05/28 04:01:38;;;;;;;7.25;2.70;;;13.60;56.10;;;;;;4991981;28;20098;-45
2022/05/28 04:04:15;;;;;;;5.28;2.90;;;13.60;56.10;;;;;;4991009;28;20105;-48
2022/05/28 04:06:44;;;;;;;7.60;3.08;;;13.60;56.20;;;;;;5010071;28;20042;-45
2022/05/28 04:09:11;;;;;;;7.53;3.30;;;13.60;56.30;;;;;;5009574;28;20076;-50
2022/05/28 04:11:38;;;;;;;7.28;3.00;;;13.60;56.50;;;;;;5011976;28;20099;-50
2022/05/28 04:14:10;;;;;;;8.35;2.92;;;13.60;56.60;;;;;;5008365;28;20042;-47
2022/05/28 04:16:39;;;;;;;5.82;2.83;;;13.60;56.70;;;;;;5016881;28;20037;-49
2022/05/28 04:19:06;;;;;;;6.47;2.95;;;13.60;56.70;;;;;;5017969;28;20034;-46
2022/05/28 04:21:33;;;;;;;6.60;2.83;;;13.60;56.90;;;;;;5012406;28;20095;-48
2022/05/28 04:24:05;;;;;;;7.70;2.63;;;13.60;56.90;;;;;;5010825;28;20031;-50
2022/05/28 04:26:34;;;;;;;6.68;2.92;;;13.60;57.00;;;;;;5016872;28;20061;-47
2022/05/28 04:29:01;;;;;;;7.90;2.92;;;13.70;57.10;;;;;;5014447;28;20034;-52
2022/05/28 04:31:28;;;;;;;7.00;3.53;;;13.70;57.20;;;;;;5010705;28;20465;-46
2022/05/28 04:33:55;;;;;;;7.05;3.22;;;13.70;57.30;;;;;;5008628;28;20480;-49
2022/05/28 04:36:22;;;;;;;7.93;3.08;;;13.70;57.40;;;;;;5015977;28;20124;-51
2022/05/28 04:38:51;;;;;;;5.32;3.03;;;13.80;57.60;;;;;;5008660;28;20046;-47
2022/05/28 04:41:18;;;;;;;5.28;2.70;;;13.80;57.80;;;;;;5009935;28;20056;-49
2022/05/28 04:43:44;;;;;;;10.02;3.47;;;13.80;57.90;;;;;;5002724;28;20042;-46
2022/05/28 04:46:11;;;;;;;8.02;3.03;;;13.80;58.00;;;;;;5013455;28;20069;-45
2022/05/28 04:48:39;;;;;;;9.82;3.10;;;13.90;58.00;;;;;;5010754;28;20045;-52
2022/05/28 04:51:08;;;;;;;8.52;2.97;;;13.90;58.10;;;;;;5007718;28;20112;-50
2022/05/28 04:53:35;;;;;;;7.72;2.90;;;13.90;58.30;;;;;;5016146;28;20045;-47
2022/05/28 04:56:09;;;;;;;4.50;2.55;;;14.00;58.40;;;;;;5012776;28;20462;-47
2022/05/28 04:58:42;;;;;;;8.15;2.58;;;14.00;58.80;;;;;;5010894;28;20037;-49
2022/05/28 05:01:13;;;;;;;5.15;2.90;;;14.00;58.70;;;;;;5017227;28;20111;-51
2022/05/28 05:03:39;;;;;;;4.80;2.38;;;14.10;58.70;;;;;;5018237;28;20041;-48
2022/05/28 05:06:09;;;;;;;7.20;3.28;;;14.10;58.70;;;;;;5020881;28;20112;-48
2022/05/28 05:08:42;;;;;;;9.00;2.83;;;14.10;58.70;;;;;;5016751;28;20117;-49
2022/05/28 05:11:12;;;;;;;11.15;3.33;;;14.20;58.80;;;;;;5005204;28;20375;-48
2022/05/28 05:13:39;;;;;;;6.22;3.03;;;14.20;58.90;;;;;;5025229;28;20096;-48
2022/05/28 05:16:15;;;;;;;8.15;3.67;;;14.20;59.00;;;;;;5017770;28;20052;-49
2022/05/28 05:18:46;;;;;;;9.90;3.40;;;14.30;59.40;;;;;;5018253;28;20075;-50
2022/05/28 05:21:13;;;;;;;8.75;3.17;;;14.30;59.00;;;;;;5015236;28;20104;-51
2022/05/28 05:23:45;;;;;;;9.02;2.97;;;14.30;59.20;;;;;;5020037;28;20089;-47
2022/05/28 05:26:15;;;;;;;8.93;3.00;;;14.40;59.40;;;;;;5008891;28;20046;-46
2022/05/28 05:28:44;;;;;;;8.93;3.38;;;14.40;59.30;;;;;;5005623;28;20053;-47
2022/05/28 05:31:12;;;;;;;7.88;3.22;;;14.40;59.30;;;;;;5023357;28;20037;-49
2022/05/28 05:33:40;;;;;;;8.07;3.20;;;14.50;59.30;;;;;;5025964;28;20041;-48
2022/05/28 05:36:09;;;;;;;7.20;3.40;;;14.50;59.50;;;;;;5012590;28;20716;-52
2022/05/28 05:38:36;;;;;;;7.20;3.10;;;14.60;59.80;;;;;;5012427;28;20040;-48
2022/05/28 05:41:03;;;;;;;12.18;4.03;;;14.60;59.70;;;;;;5014070;28;20069;-54
2022/05/28 05:43:31;;;;;;;7.72;3.33;;;14.60;60.00;;;;;;5024438;28;20107;-51
2022/05/28 05:46:03;;;;;;;6.57;3.35;;;14.70;59.90;;;;;;5029254;28;20065;-51
2022/05/28 05:48:30;;;;;;;10.35;3.13;;;14.70;60.10;;;;;;5010819;28;20129;-49
2022/05/28 05:51:04;;;;;;;9.75;3.38;;;14.70;60.10;;;;;;5023420;28;20038;-47
2022/05/28 05:53:34;;;;;;;5.07;2.88;;;14.80;60.90;;;;;;5025020;28;20107;-48
2022/05/28 05:56:06;;;;;;;9.27;2.30;;;14.80;60.30;;;;;;5031216;28;20072;-49
2022/05/28 05:58:36;;;;;;;6.57;2.75;;;14.90;60.10;;;;;;5015702;28;20046;-51
2022/05/28 06:01:06;;;;;;;7.10;2.85;;;14.90;60.60;;;;;;5018785;28;20084;-52
2022/05/28 06:03:34;;;;;;;4.45;2.00;;;15.00;60.20;;;;;;5023346;28;20056;-49
2022/05/28 06:06:04;;;;;;;7.90;2.72;;;15.10;59.80;;;;;;5030591;28;20095;-50
2022/05/28 06:08:31;;;;;;;6.03;2.70;;;15.10;59.90;;;;;;5019298;28;20054;-53
2022/05/28 06:10:58;;;;;;;7.50;2.13;;;15.20;59.50;;;;;;5011767;28;20042;-50
2022/05/28 06:13:24;;;;;;;9.35;2.53;;;15.20;59.70;;;;;;5010503;28;20077;-53
2022/05/28 06:16:00;;;;;;;3.38;2.00;;;15.30;59.90;;;;;;5011848;28;20088;-49
2022/05/28 06:18:37;;;;;;;5.70;1.83;;;15.30;59.60;;;;;;5020511;28;20128;-52
2022/05/28 06:21:04;;;;;;;3.72;1.73;;;15.40;59.80;;;;;;5022952;28;20080;-51
2022/05/28 06:23:32;;;;;;;6.45;1.80;;;15.50;59.40;;;;;;5031065;28;20053;-49
2022/05/28 06:26:03;;;;;;;10.18;2.47;;;15.50;59.40;;;;;;5017876;28;20045;-50
2022/05/28 06:28:31;;;;;;;8.03;2.37;;;15.60;59.40;;;;;;4999681;28;20042;-51
2022/05/28 06:31:00;;;;;;;7.13;2.13;;;15.60;59.00;;;;;;4987865;28;20637;-51
2022/05/28 06:33:27;;;;;;;7.85;2.10;;;15.60;58.90;;;;;;5000722;28;20069;-48
2022/05/28 06:36:02;;;;;;;6.72;1.83;;;15.70;58.50;;;;;;4994381;28;20042;-49
2022/05/28 06:38:29;;;;;;;3.05;1.75;;;15.70;58.20;;;;;;5003647;28;20580;-50
2022/05/28 06:40:56;;;;;;;5.13;2.00;;;15.70;58.20;;;;;;4997902;28;20124;-50
2022/05/28 06:43:24;;;;;;;5.85;1.98;;;15.80;58.10;;;;;;5002578;28;20377;-49
2022/05/28 06:45:50;;;;;;;7.47;1.90;;;15.90;58.20;;;;;;5000493;28;20084;-50
2022/05/28 06:48:17;;;;;;;2.75;1.30;;;16.00;57.70;;;;;;5020279;28;20122;-49
2022/05/28 06:51:02;;;;;;;8.25;1.95;;;16.00;57.30;;;;;;4997979;28;20037;-50
2022/05/28 06:53:32;;;;;;;6.25;1.98;;;16.10;56.80;;;;;;5005011;28;20109;-51
2022/05/28 06:55:59;;;;;;;6.18;1.90;;;16.20;56.80;;;;;;5001655;28;20042;-50
2022/05/28 06:58:26;;;;;;;5.63;1.55;;;16.20;56.70;;;;;;5012787;28;20092;-49
2022/05/28 07:00:53;;;;;;;4.88;1.35;;;16.30;56.20;;;;;;4992680;28;20056;-50
2022/05/28 07:03:23;;;;;;;3.35;1.50;;;16.30;55.80;;;;;;4990661;28;20054;-49
2022/05/28 07:05:50;;;;;;;4.57;1.55;;;16.40;55.30;;;;;;4996674;28;20042;-53
2022/05/28 07:08:17;;;;;;;1.85;0.90;;;16.40;55.20;;;;;;5016501;28;20049;-49
2022/05/28 07:10:48;;;;;;;4.82;1.33;;;16.50;55.70;;;;;;4988755;28;20047;-53
2022/05/28 07:13:18;;;;;;;3.35;1.10;;;16.50;55.10;;;;;;5003374;28;20038;-51
2022/05/28 07:15:45;;;;;;;5.93;1.30;;;16.60;54.60;;;;;;4999624;28;20083;-51
2022/05/28 07:18:13;;;;;;;4.95;1.20;;;16.70;54.40;;;;;;5009876;28;20065;-51
2022/05/28 07:20:40;;;;;;;4.15;1.38;;;16.70;53.90;;;;;;4989157;28;20520;-48
2022/05/28 07:23:22;;;;;;;7.57;1.75;;;16.70;53.90;;;;;;5006001;28;20053;-49
2022/05/28 07:25:53;;;;;;;4.82;1.88;;;16.80;53.60;;;;;;4998441;28;20080;-50
2022/05/28 07:28:27;;;;;;;5.22;1.02;;;16.80;54.00;;;;;;4995921;28;20068;-48
2022/05/28 07:31:03;;;;;;;2.65;0.85;;;16.80;53.40;;;;;;4992626;28;20050;-51
2022/05/28 07:33:33;;;;;;;2.60;0.75;;;16.90;53.20;;;;;;5013365;28;20052;-52
2022/05/28 07:36:04;;;;;;;3.38;0.90;;;16.90;52.60;;;;;;4999643;28;20089;-52
2022/05/28 07:38:32;;;;;;;3.38;1.17;;;17.00;52.80;;;;;;4988778;28;20042;-51
2022/05/28 07:41:07;;;;;;;4.80;1.10;;;16.80;52.70;;;;;;4999303;28;20038;-50
2022/05/28 07:43:38;;;;;;;3.55;0.95;;;17.00;52.60;;;;;;5008995;28;20072;-49
2022/05/28 07:46:16;;;;;;;5.82;1.63;;;17.00;52.60;;;;;;4993367;28;20042;-52
2022/05/28 07:48:45;;;;;;;3.00;0.77;;;17.10;52.80;;;;;;4987724;28;20148;-53
2022/05/28 07:51:12;;;;;;;2.72;1.10;;;17.10;52.40;;;;;;5003615;28;20046;-52
2022/05/28 07:53:39;;;;;;;4.65;0.65;;;17.10;52.80;;;;;;5008077;28;20120;-52
2022/05/28 07:56:07;;;;;;;4.88;1.00;;;17.00;51.90;;;;;;4997089;28;20899;-52
2022/05/28 07:58:34;;;;;;;2.85;0.90;;;17.00;51.60;;;;;;4998893;28;20378;-50
2022/05/28 08:01:02;;;;;;;4.00;1.00;;;17.00;51.60;;;;;;4998887;28;20034;-53
2022/05/28 08:03:29;;;;;;;2.95;1.33;;;16.90;50.70;;;;;;5011436;28;20048;-49
2022/05/28 08:05:57;;;;;;;3.40;0.93;;;16.90;50.50;;;;;;4989284;28;20068;-54
2022/05/28 08:08:28;;;;;;;3.53;1.30;;;16.90;50.90;;;;;;4989714;28;20141;-50
2022/05/28 08:10:55;;;;;;;5.75;1.20;;;16.90;51.30;;;;;;4994370;28;20038;-54
2022/05/28 08:13:23;;;;;;;5.80;0.80;;;16.90;51.30;;;;;;5014882;28;20096;-51
2022/05/28 08:15:52;;;;;;;3.67;1.20;;;17.00;51.20;;;;;;4988248;28;20148;-52
2022/05/28 08:18:23;;;;;;;4.47;1.13;;;17.00;51.30;;;;;;5009455;28;20502;-49
2022/05/28 08:23:38;;;;;;;3.60;0.68;;;17.00;51.10;;;;;;4997160;28;20456;-49
2022/05/28 08:26:06;;;;;;;4.93;1.00;;;17.00;50.80;;;;;;4992169;28;20050;-50
2022/05/28 08:28:35;;;;;;;1.27;0.57;;;17.00;51.10;;;;;;4993123;28;20180;-51
2022/05/28 08:31:02;;;;;;;4.65;0.80;;;17.00;50.70;;;;;;5003839;28;20125;-51
2022/05/28 08:33:29;;;;;;;2.45;0.80;;;17.10;49.80;;;;;;5011694;28;20038;-51
2022/05/28 08:35:56;;;;;;;2.67;1.08;;;17.10;50.60;;;;;;4989764;28;20055;-53
2022/05/28 08:38:24;;;;;;;2.30;0.95;;;17.20;51.20;;;;;;5009675;28;20038;-52
2022/05/28 08:41:13;;;;;;;5.43;1.33;;;17.30;50.70;;;;;;4989084;28;20192;-49
2022/05/28 08:43:47;;;;;;;2.10;0.93;;;17.40;50.90;;;;;;4987180;28;20062;-51
2022/05/28 08:46:16;;;;;;;4.63;0.80;;;17.60;48.80;;;;;;4999385;28;20097;-49
2022/05/28 08:48:45;;;;;;;5.15;1.00;;;17.70;49.20;;;;;;4997315;28;20049;-50
2022/05/28 08:51:18;;;;;;;2.05;0.77;;;17.70;47.90;;;;;;5002882;28;20042;-50
2022/05/28 08:54:04;;;;;;;2.72;0.80;;;17.80;48.00;;;;;;5004166;28;20050;-52
2022/05/28 08:56:36;;;;;;;3.10;0.63;;;17.90;48.10;;;;;;5006430;28;20039;-49
2022/05/28 08:59:29;;;;;;;4.68;1.05;;;18.00;48.50;;;;;;5016046;28;20042;-53
2022/05/28 09:02:04;;;;;;;5.03;1.35;;;18.10;48.30;;;;;;4989084;28;20039;-50
2022/05/28 09:04:36;;;;;;;3.67;1.00;;;18.10;47.80;;;;;;5002333;28;20045;-50
2022/05/28 09:07:09;;;;;;;4.38;0.68;;;18.10;47.10;;;;;;5004453;28;20037;-49
2022/05/28 09:09:47;;;;;;;5.78;1.02;;;18.20;47.80;;;;;;5003745;28;20670;-51
2022/05/28 09:12:22;;;;;;;2.30;0.60;;;18.30;47.60;;;;;;5020783;28;20486;-49
2022/05/28 09:14:48;;;;;;;3.20;0.52;;;18.30;47.00;;;;;;5025590;28;20064;-49
2022/05/28 09:17:25;;;;;;;2.45;0.45;;;18.40;47.80;;;;;;5011222;28;20101;-49
2022/05/28 09:20:00;;;;;;;2.15;0.52;;;18.40;46.80;;;;;;5021767;28;20042;-50
2022/05/28 09:22:27;;;;;;;1.75;0.90;;;18.50;46.60;;;;;;5029883;28;20165;-53
2022/05/28 09:24:53;;;;;;;2.88;0.73;;;18.50;46.50;;;;;;5005712;28;20038;-54
2022/05/28 09:27:54;;;;;;;2.88;0.60;;;18.60;46.40;;;;;;5106111;22;20050;-51
2022/05/28 09:30:48;;;;;;;0.90;0.35;;;18.60;45.90;;;;;;5012041;28;20042;-49
2022/05/28 09:33:51;;;;;;;1.65;0.50;;;18.60;45.20;;;;;;5009426;28;20085;-48
2022/05/28 09:36:32;;;;;;;3.33;1.00;;;18.60;44.20;;;;;;5007379;28;20121;-46
2022/05/28 09:39:17;;;;;;;2.10;0.70;;;18.60;44.40;;;;;;5022168;28;20034;-46
2022/05/28 09:41:56;;;;;;;1.33;0.47;;;18.60;44.10;;;;;;4990071;28;20110;-49
2022/05/28 09:44:37;;;;;;;3.05;0.55;;;18.60;44.80;;;;;;5003932;28;20050;-46
2022/05/28 09:47:13;;;;;;;1.95;0.60;;;18.60;44.50;;;;;;5009917;28;20041;-50
2022/05/28 09:49:48;;;;;;;2.33;0.60;;;18.60;44.30;;;;;;4969987;28;20058;-52
2022/05/28 09:52:31;;;;;;;1.92;0.50;;;18.70;44.20;;;;;;5002232;28;20034;-47
2022/05/28 09:55:15;;;;;;;3.00;0.60;;;18.70;45.40;;;;;;4990475;28;20069;-49
2022/05/28 09:57:53;;;;;;;1.55;0.80;;;18.80;46.10;;;;;;5003037;28;20072;-46
2022/05/28 10:00:21;;;;;;;1.75;0.40;;;18.90;44.10;;;;;;4993743;28;20457;-47
2022/05/28 10:05:54;;;;;;;3.07;0.60;;;19.00;45.40;;;;;;4996772;28;20053;-50
2022/05/28 10:08:29;;;;;;;2.22;0.60;;;19.10;43.90;;;;;;4993375;28;20043;-50
2022/05/28 10:11:04;;;;;;;3.80;0.63;;;19.20;44.20;;;;;;4982480;28;20070;-48
2022/05/28 10:13:52;;;;;;;2.13;0.77;;;19.20;44.00;;;;;;5008663;28;20414;-48
2022/05/28 10:16:22;;;;;;;3.72;0.60;;;19.40;43.20;;;;;;4986289;28;20057;-48
2022/05/28 10:19:38;;;;;;;3.33;0.88;;;19.40;44.10;;;;;;5000715;28;20112;-53
2022/05/28 10:22:11;;;;;;;1.55;0.70;;;19.50;44.20;;;;;;4995957;28;20053;-49
2022/05/28 10:24:48;;;;;;;4.70;0.88;;;19.50;43.60;;;;;;4996931;28;20057;-50
2022/05/28 10:27:32;;;;;;;3.13;0.70;;;19.50;43.40;;;;;;4999924;28;20545;-51
2022/05/28 10:30:02;;;;;;;2.17;0.80;;;19.40;43.50;;;;;;4987171;28;20088;-50
2022/05/28 10:32:34;;;;;;;3.00;0.80;;;19.30;43.10;;;;;;5011436;28;20069;-48
2022/05/28 10:35:03;;;;;;;2.13;0.55;;;19.30;41.80;;;;;;5000332;28;20049;-50
2022/05/28 10:37:30;;;;;;;1.77;0.50;;;19.30;43.40;;;;;;5001080;28;20046;-46
2022/05/28 10:40:08;;;;;;;1.15;0.50;;;19.30;43.50;;;;;;5000001;28;20070;-50
2022/05/28 10:42:37;;;;;;;4.15;0.77;;;19.30;42.40;;;;;;5008111;28;20042;-48
2022/05/28 10:45:07;;;;;;;2.00;0.40;;;19.50;43.00;;;;;;4995759;28;20157;-50
2022/05/28 10:48:11;;;;;;;1.92;0.55;;;19.50;42.50;;;;;;5007211;28;20069;-50
2022/05/28 10:50:52;;;;;;;3.25;0.40;;;19.70;41.90;;;;;;4991751;28;20801;-50
2022/05/28 10:53:28;;;;;;;3.20;0.70;;;19.70;41.10;;;;;;5011112;28;20050;-51
2022/05/28 10:56:14;;;;;;;1.10;0.57;;;19.70;41.30;;;;;;4989315;28;20043;-51
2022/05/28 10:58:54;;;;;;;4.45;0.82;;;19.70;41.10;;;;;;4998549;28;20046;-46
2022/05/28 11:01:21;;;;;;;3.70;0.60;;;19.70;41.70;;;;;;4990025;28;20458;-51
2022/05/28 11:04:01;;;;;;;1.55;0.45;;;19.70;41.20;;;;;;5012248;28;20045;-50
2022/05/28 11:06:41;;;;;;;2.70;0.60;;;19.80;40.90;;;;;;4989968;28;20046;-50
2022/05/28 11:09:33;;;;;;;1.15;0.50;;;19.90;40.50;;;;;;5005072;28;20046;-54
2022/05/28 11:12:27;;;;;;;1.70;0.30;;;19.90;39.90;;;;;;4997857;28;20084;-50
2022/05/28 11:15:10;;;;;;;1.45;0.50;;;19.90;39.40;;;;;;4989132;28;20073;-51
2022/05/28 11:17:54;;;;;;;3.28;0.50;;;19.90;38.80;;;;;;5000650;28;20416;-49
2022/05/28 11:20:28;;;;;;;1.20;0.40;;;19.90;38.50;;;;;;4991921;28;20092;-53
2022/05/28 11:23:24;;;;;;;2.20;0.90;;;19.80;38.90;;;;;;5005433;28;20042;-49
2022/05/28 11:26:00;;;;;;;6.10;1.20;;;19.80;39.00;;;;;;4975462;28;20581;-50
2022/05/28 11:29:16;;;;;;;3.10;0.60;;;19.90;40.40;;;;;;5011598;28;20053;-52
2022/05/28 11:31:56;;;;;;;2.28;0.63;;;20.00;38.80;;;;;;4995458;28;20469;-52
2022/05/28 11:34:30;;;;;;;0.70;0.47;;;20.00;40.00;;;;;;4987026;28;20538;-53
2022/05/28 11:37:32;;;;;;;6.05;2.17;;;20.10;39.30;;;;;;4994122;28;20721;-50
2022/05/28 11:40:13;;;;;;;0.70;0.50;;;20.20;39.40;;;;;;5002707;28;20077;-52
2022/05/28 11:43:20;;;;;;;1.30;0.60;;;20.30;39.60;;;;;;5004125;28;20066;-52
2022/05/28 11:46:13;;;;;;;2.13;0.57;;;20.30;40.30;;;;;;4917066;29;20047;-48
2022/05/28 11:51:37;;;;;;;2.42;0.50;;;20.40;39.30;;;;;;4994756;28;19925;-52
2022/05/28 11:54:33;;;;;;;3.22;1.35;;;20.30;38.90;;;;;;5003820;28;20050;-55
2022/05/28 11:57:14;;;;;;;2.20;0.40;;;20.30;39.40;;;;;;4993027;28;20117;-53
2022/05/28 11:59:42;;;;;;;2.85;0.80;;;20.20;38.90;;;;;;4990913;28;20046;-49
2022/05/28 12:02:23;;;;;;;2.38;0.80;;;20.30;39.70;;;;;;5006725;28;20069;-52
2022/05/28 12:04:50;;;;;;;4.38;0.50;;;20.30;39.10;;;;;;4988508;28;20061;-54
2022/05/28 12:07:31;;;;;;;3.15;0.52;;;20.40;39.90;;;;;;4996894;28;20046;-52
2022/05/28 12:09:58;;;;;;;1.38;0.63;;;20.40;39.30;;;;;;4996298;28;20088;-52
2022/05/28 12:12:35;;;;;;;2.53;0.60;;;20.50;38.70;;;;;;4974219;28;20113;-49
2022/05/28 12:15:08;;;;;;;1.50;0.52;;;20.60;39.10;;;;;;5001903;28;20045;-52
2022/05/28 12:17:35;;;;;;;3.35;0.80;;;20.60;39.00;;;;;;4967303;28;20077;-50
2022/05/28 12:20:07;;;;;;;3.13;1.02;;;20.60;38.50;;;;;;5017760;28;20058;-50
2022/05/28 12:22:56;;;;;;;3.45;0.57;;;20.70;39.80;;;;;;5028127;28;20122;-51
2022/05/28 12:25:29;;;;;;;1.35;0.57;;;20.70;39.70;;;;;;5028451;28;20503;-50
2022/05/28 12:27:56;;;;;;;3.60;1.08;;;20.80;38.80;;;;;;5006107;28;20074;-49
2022/05/28 12:30:27;;;;;;;2.38;0.70;;;20.90;38.80;;;;;;5016272;28;20052;-52
2022/05/28 12:32:57;;;;;;;3.80;0.80;;;20.90;37.40;;;;;;5019006;28;20493;-52
2022/05/28 12:35:52;;;;;;;2.45;0.63;;;20.90;38.20;;;;;;5019946;28;20343;-50
2022/05/28 12:38:37;;;;;;;3.78;0.47;;;20.90;37.60;;;;;;4989093;28;20058;-53
2022/05/28 12:41:04;;;;;;;2.00;0.77;;;20.90;38.30;;;;;;5020592;28;20066;-52
2022/05/28 12:43:38;;;;;;;2.10;0.55;;;20.90;38.00;;;;;;5029951;28;20434;-50
2022/05/28 12:46:13;;;;;;;1.27;0.30;;;20.80;35.80;;;;;;5005420;28;20040;-50
2022/05/28 12:48:41;;;;;;;4.50;0.60;;;20.90;35.70;;;;;;5003255;28;20038;-50
2022/05/28 12:51:26;;;;;;;1.02;0.52;;;21.00;36.20;;;;;;5015382;28;20070;-53
2022/05/28 12:54:01;;;;;;;1.98;0.40;;;21.00;36.30;;;;;;5015621;28;20042;-50
2022/05/28 12:56:34;;;;;;;2.53;0.85;;;21.20;36.80;;;;;;5013238;28;20103;-51
2022/05/28 12:59:14;;;;;;;1.83;0.68;;;21.30;36.10;;;;;;5009645;28;20038;-50
2022/05/28 13:02:14;;;;;;;3.22;0.52;;;21.40;35.60;;;;;;5009717;28;20054;-48
2022/05/28 13:04:59;;;;;;;1.85;0.40;;;21.50;35.70;;;;;;5009044;28;20446;-52
2022/05/28 13:07:58;;;;;;;3.90;0.50;;;21.70;34.00;;;;;;5005012;28;20089;-52
2022/05/28 13:10:27;;;;;;;2.42;0.43;;;21.70;32.60;;;;;;4971283;28;20111;-48
2022/05/28 13:13:21;;;;;;;0.85;0.40;;;21.80;35.00;;;;;;5017759;28;20069;-52
2022/05/28 13:15:53;;;;;;;3.13;0.98;;;21.90;33.70;;;;;;5004718;28;20544;-52
2022/05/28 13:18:27;;;;;;;2.75;1.13;;;22.10;34.20;;;;;;5020676;28;20037;-50
2022/05/28 13:21:14;;;;;;;2.35;0.70;;;22.10;33.90;;;;;;5011694;28;20062;-54
2022/05/28 13:23:56;;;;;;;4.10;1.77;;;22.00;33.40;;;;;;5010687;28;20072;-51
2022/05/28 13:26:43;;;;;;;2.03;0.80;;;22.00;34.70;;;;;;5018228;28;20037;-51
2022/05/28 13:29:15;;;;;;;1.83;0.80;;;22.10;34.50;;;;;;5000155;28;20784;-51
2022/05/28 13:31:51;;;;;;;3.08;1.17;;;22.30;35.30;;;;;;5015316;28;20074;-50